Time;durP1;ratioP1;P1;durP2;ratioP2;P2;SDS_P1;SDS_P2;PMS_P1;PMS_P2;Temp;Humidity;BMP_temperature;BMP_pressure;BME280_temperature;BME280_humidity;BME280_pressure;Samples;Min_cycle;Max_cycle;Signal;HPM_P1;HPM_P2
2021/05/12 00:08:44;;;;;;;7.20;3.45;;;;;;;17.79;58.29;99745.80;712814;1178;113738;-76
2021/05/12 00:24:05;;;;;;;6.40;3.30;;;;;;;17.59;58.00;99743.84;712944;1202;114423;-75
2021/05/12 00:39:25;;;;;;;9.55;3.65;;;;;;;17.45;57.74;99723.55;712694;1180;113666;-75
2021/05/12 00:54:45;;;;;;;4.67;3.00;;;;;;;17.26;56.91;99722.38;712668;1205;114075;-73
2021/05/12 01:10:06;;;;;;;10.98;4.13;;;;;;;17.14;56.54;99719.44;712942;1177;114529;-75
2021/05/12 01:25:27;;;;;;;5.28;3.15;;;;;;;16.95;56.02;99710.33;713815;1202;114231;-74
2021/05/12 01:40:48;;;;;;;7.15;2.90;;;;;;;16.74;56.10;99693.40;714542;1202;114563;-76
2021/05/12 01:56:10;;;;;;;4.15;2.40;;;;;;;16.61;55.66;99669.45;713787;1202;114589;-75
2021/05/12 02:11:31;;;;;;;7.33;2.33;;;;;;;16.33;55.61;99666.75;714357;1202;115162;-74
2021/05/12 02:26:51;;;;;;;5.07;2.33;;;;;;;16.24;55.45;99680.07;713907;1203;114442;-74
2021/05/12 02:42:13;;;;;;;5.90;3.10;;;;;;;16.10;55.44;99671.19;714338;1202;113558;-74
2021/05/12 02:57:34;;;;;;;5.18;3.03;;;;;;;15.99;54.71;99666.36;713914;1202;113803;-73
2021/05/12 03:12:55;;;;;;;4.07;2.43;;;;;;;15.95;54.50;99668.55;713444;1177;113737;-81
2021/05/12 03:28:15;;;;;;;5.27;2.60;;;;;;;15.91;54.73;99674.41;712785;1202;114347;-79
2021/05/12 03:43:36;;;;;;;3.95;2.43;;;;;;;16.01;54.81;99680.23;713204;1202;113649;-80
2021/05/12 03:58:56;;;;;;;6.03;2.50;;;;;;;16.04;55.06;99679.05;713648;1202;113561;-79
2021/05/12 04:14:17;;;;;;;13.90;3.48;;;;;;;16.23;54.73;99669.68;713114;1177;113429;-80
2021/05/12 04:29:38;;;;;;;4.10;2.23;;;;;;;16.53;53.87;99669.59;714863;1177;114166;-80
2021/05/12 04:44:58;;;;;;;6.50;3.57;;;;;;;16.91;52.93;99664.84;713345;1180;113217;-80
2021/05/12 05:15:57;;;;;;;7.43;2.90;;;;;;;17.62;52.36;99663.88;713318;1169;113363;-77
2021/05/12 05:31:18;;;;;;;6.03;2.53;;;;;;;17.89;51.90;99661.33;712677;1203;115099;-79
2021/05/12 05:46:38;;;;;;;6.90;3.00;;;;;;;18.20;51.65;99660.05;712563;1192;114176;-81
2021/05/12 06:01:58;;;;;;;6.00;2.50;;;;;;;18.49;51.49;99647.44;712578;1203;113940;-79
2021/05/12 06:17:19;;;;;;;4.85;2.85;;;;;;;18.88;51.79;99650.31;712492;1188;113980;-81
2021/05/12 06:32:39;;;;;;;6.63;2.53;;;;;;;19.25;51.20;99651.51;712358;1209;113823;-81
2021/05/12 06:48:00;;;;;;;5.95;3.10;;;;;;;19.62;51.48;99643.86;712492;1187;113632;-79
2021/05/12 07:03:23;;;;;;;5.93;2.85;;;;;;;20.08;51.55;99644.69;712916;1208;113749;-82
2021/05/12 07:18:43;;;;;;;7.23;2.67;;;;;;;20.83;51.38;99655.70;713058;1180;114162;-83
2021/05/12 07:34:06;;;;;;;8.90;3.60;;;;;;;21.58;50.92;99663.59;712422;1209;115120;-83
2021/05/12 07:49:27;;;;;;;4.95;2.65;;;;;;;22.29;50.13;99655.11;713448;1203;113511;-85
2021/05/12 08:04:47;;;;;;;7.40;2.67;;;;;;;23.19;49.23;99645.26;714127;1180;114055;-85
2021/05/12 08:20:09;;;;;;;6.03;2.15;;;;;;;24.07;49.03;99644.34;713210;1203;115431;-85
2021/05/12 08:35:30;;;;;;;7.83;2.70;;;;;;;24.57;48.30;99642.78;714840;1203;113685;-88
2021/05/12 08:50:52;;;;;;;5.40;2.17;;;;;;;24.91;47.13;99627.52;713210;1181;114859;-86
2021/05/12 09:06:13;;;;;;;4.58;2.70;;;;;;;25.54;46.52;99634.56;716230;1203;113727;-86
2021/05/12 09:21:53;;;;;;;7.50;2.65;;;;;;;26.10;46.61;99628.20;716392;1180;113603;-86
2021/05/12 09:37:33;;;;;;;14.10;2.17;;;;;;;26.82;45.12;99628.81;715473;1205;113679;-87
2021/05/12 09:52:56;;;;;;;5.75;2.00;;;;;;;27.27;44.21;99619.38;713451;1209;114380;-89
2021/05/12 10:08:24;;;;;;;5.60;2.10;;;;;;;27.70;43.94;99622.80;713884;1203;113620;-86
2021/05/12 10:23:45;;;;;;;4.78;2.05;;;;;;;28.09;43.56;99602.68;715112;1184;113524;-82
2021/05/12 10:39:05;;;;;;;6.67;3.10;;;;;;;28.29;42.86;99617.25;715050;1203;115272;-82
2021/05/12 10:54:55;;;;;;;8.93;2.17;;;;;;;28.46;41.98;99603.50;714693;1203;113983;-90
2021/05/12 11:10:22;;;;;;;3.60;1.90;;;;;;;29.37;41.44;99598.20;713710;1209;115192;-89
2021/05/12 11:25:44;;;;;;;5.77;2.20;;;;;;;29.70;39.84;99596.66;713418;1203;115049;-89
2021/05/12 11:41:18;;;;;;;7.77;1.60;;;;;;;29.50;37.99;99600.29;713389;1203;115008;-82
2021/05/12 11:56:56;;;;;;;7.25;1.60;;;;;;;29.65;39.00;99576.98;712822;1180;114296;-81
2021/05/12 12:12:17;;;;;;;11.10;1.90;;;;;;;29.50;39.62;99585.98;714818;1208;114323;-83
2021/05/12 12:27:41;;;;;;;15.73;6.77;;;;;;;29.87;40.42;99569.29;713321;1206;114198;-81
2021/05/12 12:43:02;;;;;;;5.90;3.30;;;;;;;30.09;40.11;99568.06;714645;1180;114290;-81
2021/05/12 12:58:22;;;;;;;5.53;2.40;;;;;;;29.93;39.83;99571.96;713999;1209;113440;-81
2021/05/12 13:13:49;;;;;;;6.10;1.40;;;;;;;30.26;40.01;99578.44;712495;1180;113526;-82
2021/05/12 13:29:17;;;;;;;7.08;2.00;;;;;;;30.32;40.88;99557.59;712684;1209;113372;-83
2021/05/12 13:44:37;;;;;;;11.25;2.00;;;;;;;30.20;40.88;99556.05;712437;1200;113480;-83
2021/05/12 14:15:58;;;;;;;5.60;2.10;;;;;;;30.15;41.02;99536.38;712891;1203;114475;-82
2021/05/12 14:31:14;;;;;;;10.48;2.10;;;;;;;35.59;35.21;99527.88;712849;1200;114183;-76
2021/05/12 14:46:35;;;;;;;7.53;2.83;;;;;;;30.34;40.13;99514.81;712932;1203;115622;-76
2021/05/12 15:17:56;;;;;;;6.40;2.47;;;;;;;29.28;41.46;99487.24;711672;1203;115208;-75
2021/05/12 15:33:17;;;;;;;10.98;2.55;;;;;;;29.15;41.46;99491.33;712967;1203;113786;-76
2021/05/12 15:48:41;;;;;;;7.47;3.13;;;;;;;28.63;41.72;99490.71;712916;1203;114207;-75
2021/05/12 16:04:08;;;;;;;9.93;3.00;;;;;;;28.46;41.92;99472.15;712887;1203;114979;-77
2021/05/12 16:19:32;;;;;;;17.38;4.30;;;;;;;28.32;42.45;99465.70;712421;1203;114242;-77
2021/05/12 16:34:53;;;;;;;14.70;6.53;;;;;;;27.91;42.62;99458.45;712397;1208;113799;-75
2021/05/12 16:50:14;;;;;;;10.97;7.07;;;;;;;27.39;42.79;99457.63;712382;1203;115020;-80
2021/05/12 17:05:34;;;;;;;13.05;8.78;;;;;;;27.26;44.59;99460.81;712551;1190;114327;-79
2021/05/12 17:20:55;;;;;;;12.30;3.75;;;;;;;26.60;45.25;99459.48;712688;1199;113740;-75
2021/05/12 17:36:15;;;;;;;9.10;3.70;;;;;;;26.02;47.12;99471.70;712667;1203;115079;-79
2021/05/12 17:51:36;;;;;;;8.53;4.80;;;;;;;25.36;48.93;99480.80;712575;1205;114714;-77
2021/05/12 18:06:57;;;;;;;9.77;6.60;;;;;;;24.81;50.31;99476.38;712858;1208;114538;-77
2021/05/12 18:22:18;;;;;;;10.55;6.40;;;;;;;24.02;52.05;99491.57;712439;1208;114834;-77
2021/05/12 18:37:45;;;;;;;16.10;9.63;;;;;;;23.54;54.09;99510.55;713411;1203;113961;-77
2021/05/12 18:53:06;;;;;;;12.73;7.98;;;;;;;23.10;55.32;99505.67;713743;1181;114427;-77
2021/05/12 19:55:05;;;;;;;12.83;6.77;;;;;;;21.26;58.46;99541.02;713226;1203;114592;-75
2021/05/12 20:25:51;;;;;;;7.35;5.60;;;;;;;20.51;59.47;99522.50;713248;1180;112924;-75
2021/05/12 20:41:12;;;;;;;9.23;5.28;;;;;;;20.18;59.60;99510.28;712661;1203;115753;-76
2021/05/12 20:56:32;;;;;;;8.40;4.25;;;;;;;19.86;59.10;99513.81;712924;1181;113730;-75
2021/05/12 21:11:53;;;;;;;7.57;4.50;;;;;;;19.58;58.95;99509.63;713071;1203;113786;-75
2021/05/12 21:27:13;;;;;;;9.83;3.23;;;;;;;19.24;58.69;99516.13;713128;1182;114113;-75
2021/05/12 21:42:33;;;;;;;9.98;4.13;;;;;;;19.17;57.51;99520.67;713011;1203;113805;-75
2021/05/12 21:57:54;;;;;;;4.85;2.78;;;;;;;18.72;56.99;99500.92;712929;1203;113623;-75
2021/05/12 22:44:36;;;;;;;9.95;4.85;;;;;;;17.79;56.04;99491.14;712923;1203;114985;-75
2021/05/12 22:59:56;;;;;;;4.00;2.30;;;;;;;17.52;56.26;99480.46;712578;1208;114736;-74
2021/05/12 23:15:16;;;;;;;4.58;2.40;;;;;;;17.28;56.69;99495.08;712147;1208;113635;-75
2021/05/12 23:30:37;;;;;;;3.70;1.98;;;;;;;16.90;57.21;99476.97;712139;1185;115321;-75
2021/05/12 23:45:57;;;;;;;5.25;3.30;;;;;;;16.72;56.94;99459.75;712097;1207;115217;-74
